Time;durP1;ratioP1;P1;durP2;ratioP2;P2;SDS_P1;SDS_P2;PMS_P1;PMS_P2;Temp;Humidity;BMP_temperature;BMP_pressure;BME280_temperature;BME280_humidity;BME280_pressure;Samples;Min_cycle;Max_cycle;Signal;HPM_P1;HPM_P2
2022/12/11 00:02:10;;;;;;;23.50;13.90;;;0.60;99.90;;;;;;5070728;28;20459;-78
2022/12/11 00:04:37;;;;;;;24.33;14.30;;;0.60;99.90;;;;;;5074171;28;20450;-78
2022/12/11 00:07:04;;;;;;;24.13;15.20;;;0.60;99.90;;;;;;5070998;28;20198;-78
2022/12/11 00:09:31;;;;;;;22.33;15.23;;;0.50;99.90;;;;;;5064917;28;20731;-77
2022/12/11 00:11:58;;;;;;;29.50;17.67;;;0.50;99.90;;;;;;5066559;28;20482;-78
2022/12/11 00:14:25;;;;;;;23.87;13.80;;;0.50;99.90;;;;;;5074626;28;20471;-77
2022/12/11 00:16:52;;;;;;;27.63;16.13;;;0.50;99.90;;;;;;5074243;28;20567;-78
2022/12/11 00:19:21;;;;;;;24.20;13.70;;;0.50;99.90;;;;;;5066486;28;20277;-78
2022/12/11 00:21:47;;;;;;;29.23;16.60;;;0.50;99.90;;;;;;5068475;28;20580;-77
2022/12/11 00:24:14;;;;;;;27.40;15.93;;;0.50;99.90;;;;;;5063850;28;20493;-78
2022/12/11 00:26:41;;;;;;;18.67;12.53;;;0.50;99.90;;;;;;5066172;28;20479;-77
2022/12/11 00:29:13;;;;;;;18.30;12.50;;;0.20;99.90;;;;;;5068262;28;20937;-78
2022/12/11 00:31:40;;;;;;;22.40;10.83;;;0.10;99.90;;;;;;5067625;28;20554;-77
2022/12/11 00:34:07;;;;;;;18.13;10.65;;;0.00;99.90;;;;;;5069201;28;20482;-78
2022/12/11 00:36:36;;;;;;;15.07;9.55;;;0.00;99.90;;;;;;5065576;28;20238;-77
2022/12/11 00:39:03;;;;;;;15.17;10.90;;;0.00;99.90;;;;;;5064303;28;20232;-78
2022/12/11 00:41:30;;;;;;;19.00;10.00;;;0.10;99.90;;;;;;5066937;28;20948;-78
2022/12/11 00:43:57;;;;;;;22.03;10.63;;;0.10;99.90;;;;;;5076557;28;20497;-78
2022/12/11 00:46:24;;;;;;;20.55;9.68;;;0.20;99.90;;;;;;5078287;28;20482;-78
2022/12/11 00:48:52;;;;;;;17.60;11.35;;;0.20;99.90;;;;;;5070626;28;20240;-77
2022/12/11 00:51:19;;;;;;;20.13;11.60;;;0.10;99.90;;;;;;5065473;28;20295;-78
2022/12/11 00:53:48;;;;;;;20.52;12.70;;;0.10;99.90;;;;;;5067852;28;20213;-77
2022/12/11 00:56:18;;;;;;;22.48;13.05;;;0.10;99.90;;;;;;5084440;28;20292;-77
2022/12/11 00:58:45;;;;;;;28.73;14.57;;;0.10;99.90;;;;;;5085956;28;20597;-78
2022/12/11 01:01:14;;;;;;;23.50;13.65;;;0.00;99.90;;;;;;5083065;28;20516;-78
2022/12/11 01:03:41;;;;;;;20.30;11.63;;;-0.10;99.90;;;;;;5079519;28;20240;-78
2022/12/11 01:06:12;;;;;;;26.55;12.30;;;-0.10;99.90;;;;;;5067989;28;20269;-78
2022/12/11 01:08:39;;;;;;;25.13;13.65;;;-0.10;99.90;;;;;;5073310;28;20312;-77
2022/12/11 01:11:10;;;;;;;25.85;13.55;;;-0.10;99.90;;;;;;5072845;28;20235;-77
2022/12/11 01:13:39;;;;;;;21.10;12.00;;;-0.10;99.90;;;;;;5073298;28;20223;-77
2022/12/11 01:16:07;;;;;;;24.63;12.70;;;-0.20;99.90;;;;;;5073711;28;20201;-77
2022/12/11 01:18:34;;;;;;;20.20;11.40;;;-0.30;99.90;;;;;;5079711;28;20540;-77
2022/12/11 01:21:06;;;;;;;23.37;12.67;;;-0.30;99.90;;;;;;5071882;28;20514;-78
2022/12/11 01:23:33;;;;;;;21.40;11.90;;;-0.30;99.90;;;;;;5069137;28;20502;-78
2022/12/11 01:26:05;;;;;;;18.93;10.53;;;-0.30;99.90;;;;;;5074477;28;20490;-77
2022/12/11 01:28:34;;;;;;;19.57;11.07;;;-0.40;99.90;;;;;;5069062;28;20502;-77
2022/12/11 01:31:00;;;;;;;18.70;11.20;;;-0.40;99.90;;;;;;5067686;28;20451;-78
2022/12/11 01:33:28;;;;;;;22.23;12.27;;;-0.40;99.90;;;;;;5068529;28;20910;-78
2022/12/11 01:35:55;;;;;;;18.45;9.90;;;-0.30;99.90;;;;;;5080596;28;21006;-77
2022/12/11 01:38:22;;;;;;;21.27;13.03;;;-0.30;99.90;;;;;;5076015;28;20241;-77
2022/12/11 01:40:51;;;;;;;20.43;12.67;;;-0.30;99.90;;;;;;5069489;28;20501;-77
2022/12/11 01:43:18;;;;;;;26.60;12.00;;;-0.30;99.90;;;;;;5076620;28;20878;-78
2022/12/11 01:45:48;;;;;;;21.83;12.65;;;-0.30;99.90;;;;;;5069172;28;20487;-78
2022/12/11 01:48:20;;;;;;;28.23;12.50;;;-0.20;99.90;;;;;;5079417;28;20680;-78
2022/12/11 01:50:50;;;;;;;22.47;11.00;;;-0.20;99.90;;;;;;5072225;28;20501;-78
2022/12/11 01:53:20;;;;;;;16.93;11.60;;;-0.20;99.90;;;;;;5076203;28;20498;-78
2022/12/11 01:55:51;;;;;;;19.93;12.30;;;-0.10;99.90;;;;;;5089733;28;20483;-78
2022/12/11 01:58:20;;;;;;;22.30;12.00;;;-0.20;99.90;;;;;;5081001;28;20482;-78
2022/12/11 02:00:48;;;;;;;26.90;12.50;;;-0.20;99.90;;;;;;5083894;28;21149;-78
2022/12/11 02:03:16;;;;;;;26.80;10.90;;;-0.30;99.90;;;;;;5073102;28;20455;-78
2022/12/11 02:05:43;;;;;;;22.43;10.00;;;-0.30;99.90;;;;;;5084255;28;20930;-77
2022/12/11 02:08:10;;;;;;;18.90;10.57;;;-0.30;99.90;;;;;;5074322;28;21136;-78
2022/12/11 02:10:50;;;;;;;21.30;11.17;;;-0.20;99.90;;;;;;5084464;28;20500;-78
2022/12/11 02:13:25;;;;;;;24.20;9.57;;;-0.20;99.90;;;;;;5087740;28;20504;-78
2022/12/11 02:16:00;;;;;;;22.63;11.90;;;-0.20;99.90;;;;;;5084373;28;21022;-78
2022/12/11 02:18:34;;;;;;;17.17;10.10;;;-0.10;99.90;;;;;;5086531;28;20453;-78
2022/12/11 02:21:07;;;;;;;23.03;12.27;;;-0.10;99.90;;;;;;5081678;28;20514;-78
2022/12/11 02:24:20;;;;;;;18.67;11.20;;;-0.10;99.90;;;;;;5078991;28;20454;-77
2022/12/11 02:27:00;;;;;;;16.53;10.40;;;0.00;99.90;;;;;;5072107;28;20551;-78
2022/12/11 02:29:36;;;;;;;15.10;10.03;;;0.10;99.90;;;;;;5067634;28;20506;-78
2022/12/11 02:32:10;;;;;;;20.07;10.77;;;0.10;99.90;;;;;;5066892;28;20471;-78
2022/12/11 02:34:42;;;;;;;18.90;11.50;;;0.00;99.90;;;;;;5068977;28;20537;-77
2022/12/11 02:37:15;;;;;;;17.70;10.00;;;0.00;99.90;;;;;;5070343;28;20487;-77
2022/12/11 02:39:43;;;;;;;16.70;10.70;;;0.10;99.90;;;;;;5068316;28;20525;-77
2022/12/11 02:42:13;;;;;;;15.90;10.10;;;0.10;99.90;;;;;;5068442;28;20491;-78
2022/12/11 02:44:43;;;;;;;15.77;9.63;;;0.10;99.90;;;;;;5070975;28;20476;-77
2022/12/11 02:47:13;;;;;;;15.60;8.70;;;0.10;99.90;;;;;;5074458;28;20469;-77
2022/12/11 02:49:42;;;;;;;16.03;10.17;;;0.10;99.90;;;;;;5072442;28;20942;-78
2022/12/11 02:52:12;;;;;;;17.27;10.93;;;0.10;99.90;;;;;;5069169;28;20516;-78
2022/12/11 02:54:41;;;;;;;18.33;12.87;;;0.10;99.90;;;;;;5078747;28;20451;-78
2022/12/11 02:57:12;;;;;;;25.20;14.18;;;0.20;99.90;;;;;;5085174;28;20489;-78
2022/12/11 02:59:42;;;;;;;17.83;13.00;;;0.10;99.90;;;;;;5095070;28;20286;-77
2022/12/11 03:02:10;;;;;;;21.47;14.13;;;0.10;99.90;;;;;;5087395;28;20832;-78
2022/12/11 03:04:38;;;;;;;33.87;17.80;;;0.10;99.90;;;;;;5084206;28;20489;-78
2022/12/11 03:07:11;;;;;;;25.57;16.00;;;0.20;99.90;;;;;;5078063;28;20477;-78
2022/12/11 03:09:39;;;;;;;25.98;17.08;;;0.20;99.90;;;;;;5086326;28;20533;-77
2022/12/11 03:12:07;;;;;;;25.08;14.80;;;0.20;99.90;;;;;;5077105;28;20231;-78
2022/12/11 03:14:34;;;;;;;26.42;15.10;;;0.10;99.90;;;;;;5076942;28;20212;-77
2022/12/11 03:17:08;;;;;;;24.00;14.20;;;0.10;99.90;;;;;;5077963;28;20205;-77
2022/12/11 03:19:39;;;;;;;25.77;14.43;;;0.10;99.90;;;;;;5069565;28;20953;-77
2022/12/11 03:22:11;;;;;;;26.73;14.63;;;0.00;99.90;;;;;;5076591;28;20513;-77
2022/12/11 03:24:43;;;;;;;20.37;12.93;;;0.00;99.90;;;;;;5067438;28;20210;-77
2022/12/11 03:27:17;;;;;;;29.20;16.70;;;-0.10;99.90;;;;;;5067274;28;20484;-77
2022/12/11 03:29:54;;;;;;;25.50;14.38;;;-0.10;99.90;;;;;;5083530;28;20269;-77
2022/12/11 03:32:26;;;;;;;32.83;18.15;;;-0.10;99.90;;;;;;5085753;28;20235;-78
2022/12/11 03:35:00;;;;;;;27.75;16.13;;;-0.10;99.90;;;;;;5069115;28;20221;-78
2022/12/11 03:37:29;;;;;;;24.75;14.18;;;-0.10;99.90;;;;;;5078636;28;20201;-77
2022/12/11 03:40:01;;;;;;;31.47;14.60;;;-0.10;99.90;;;;;;5081435;28;20212;-77
2022/12/11 03:42:29;;;;;;;26.93;17.03;;;-0.10;99.90;;;;;;5086424;28;20481;-78
2022/12/11 03:44:59;;;;;;;27.17;15.45;;;-0.10;99.90;;;;;;5072099;28;20498;-78
2022/12/11 03:47:28;;;;;;;27.90;12.83;;;-0.10;99.90;;;;;;5074597;28;20247;-77
2022/12/11 03:49:57;;;;;;;27.83;16.30;;;-0.10;99.90;;;;;;5085117;28;20513;-77
2022/12/11 03:52:27;;;;;;;30.13;17.23;;;-0.10;99.90;;;;;;5070130;28;20499;-78
2022/12/11 03:54:57;;;;;;;33.90;18.75;;;-0.10;99.90;;;;;;5087211;28;20454;-78
2022/12/11 03:57:29;;;;;;;32.28;17.00;;;-0.10;99.90;;;;;;5085802;28;20203;-78
2022/12/11 03:59:57;;;;;;;30.17;17.88;;;-0.10;99.90;;;;;;5087106;28;20645;-77
2022/12/11 04:02:24;;;;;;;32.55;17.52;;;-0.10;99.90;;;;;;5082952;28;20311;-77
2022/12/11 04:04:52;;;;;;;32.42;19.55;;;-0.10;99.90;;;;;;5086075;28;20294;-77
2022/12/11 04:07:19;;;;;;;35.63;19.88;;;-0.10;99.90;;;;;;5073256;28;20659;-77
2022/12/11 04:09:46;;;;;;;37.53;19.83;;;-0.10;99.90;;;;;;5067659;28;20213;-78
2022/12/11 04:12:13;;;;;;;33.53;16.80;;;0.00;99.90;;;;;;5073858;28;20205;-77
2022/12/11 04:25:39;;;;;;;33.90;17.17;;;-0.10;99.90;;;;;;5076868;28;20215;-78
2022/12/11 04:28:06;;;;;;;46.20;19.10;;;-0.10;99.90;;;;;;5069542;28;20236;-77
2022/12/11 04:30:33;;;;;;;32.08;18.65;;;-0.10;99.90;;;;;;5081441;28;20488;-77
2022/12/11 04:33:01;;;;;;;39.30;20.80;;;-0.20;99.90;;;;;;5083260;28;20251;-77
2022/12/11 04:35:29;;;;;;;37.50;17.53;;;-0.20;99.90;;;;;;5083501;28;20211;-77
2022/12/11 04:37:57;;;;;;;38.55;18.58;;;-0.20;99.90;;;;;;5072368;28;20583;-77
2022/12/11 04:40:25;;;;;;;32.45;17.80;;;-0.20;99.90;;;;;;5069990;28;20759;-78
2022/12/11 04:42:52;;;;;;;31.97;19.07;;;-0.20;99.90;;;;;;5081135;28;20230;-77
2022/12/11 04:45:19;;;;;;;34.63;18.15;;;-0.30;99.90;;;;;;5071164;28;20951;-77
2022/12/11 04:47:46;;;;;;;31.75;18.17;;;-0.30;99.90;;;;;;5086662;28;20239;-77
2022/12/11 04:50:14;;;;;;;30.80;15.60;;;-0.30;99.90;;;;;;5074325;28;20300;-77
2022/12/11 04:52:42;;;;;;;31.50;22.02;;;-0.30;99.90;;;;;;5069641;28;20283;-77
2022/12/11 04:55:10;;;;;;;38.50;21.20;;;-0.40;99.90;;;;;;5080445;28;20307;-78
2022/12/11 04:57:37;;;;;;;35.08;19.45;;;-0.40;99.90;;;;;;5082538;28;20603;-77
2022/12/11 05:00:06;;;;;;;38.67;19.48;;;-0.40;99.90;;;;;;5076051;28;20262;-77
2022/12/11 05:02:35;;;;;;;34.78;20.20;;;-0.40;99.90;;;;;;5085879;28;20266;-75
2022/12/11 05:05:04;;;;;;;38.47;20.02;;;-0.40;99.90;;;;;;5085117;28;20217;-75
2022/12/11 05:07:31;;;;;;;39.15;19.23;;;-0.40;99.90;;;;;;5077454;28;20915;-75
2022/12/11 05:09:59;;;;;;;34.17;17.58;;;-0.40;99.90;;;;;;5068725;28;20243;-75
2022/12/11 05:12:26;;;;;;;45.83;19.98;;;-0.40;99.90;;;;;;5082635;28;20199;-75
2022/12/11 05:14:54;;;;;;;31.33;19.45;;;-0.40;99.90;;;;;;5081382;28;20656;-75
2022/12/11 05:17:21;;;;;;;36.53;20.88;;;-0.40;99.90;;;;;;5074095;28;20255;-75
2022/12/11 05:19:49;;;;;;;34.72;20.70;;;-0.40;99.90;;;;;;5078985;28;20310;-75
2022/12/11 05:22:17;;;;;;;38.08;20.65;;;-0.30;99.90;;;;;;5068388;28;20236;-75
2022/12/11 05:24:44;;;;;;;36.30;19.52;;;-0.30;99.90;;;;;;5070108;28;20299;-75
2022/12/11 05:27:13;;;;;;;43.03;20.00;;;-0.30;99.90;;;;;;5063477;28;20309;-76
2022/12/11 05:29:40;;;;;;;43.75;21.98;;;-0.30;99.90;;;;;;5072943;28;20299;-75
2022/12/11 05:32:07;;;;;;;45.33;23.35;;;-0.30;99.90;;;;;;5084033;28;20289;-76
2022/12/11 05:34:34;;;;;;;40.35;19.58;;;-0.40;99.90;;;;;;5080349;28;20689;-75
2022/12/11 05:37:02;;;;;;;37.35;21.50;;;-0.40;99.90;;;;;;5073346;28;20233;-75
2022/12/11 05:39:29;;;;;;;42.40;21.38;;;-0.40;99.90;;;;;;5069447;28;20588;-76
2022/12/11 05:41:57;;;;;;;28.05;17.85;;;-0.50;99.90;;;;;;5084796;28;20226;-76
2022/12/11 05:44:25;;;;;;;32.03;17.33;;;-0.60;99.90;;;;;;5084687;28;20234;-75
2022/12/11 05:46:52;;;;;;;29.38;17.77;;;-0.60;99.90;;;;;;5084126;28;20289;-74
2022/12/11 05:49:20;;;;;;;30.17;14.32;;;-0.70;99.90;;;;;;5073536;28;20789;-74
2022/12/11 05:51:47;;;;;;;36.38;19.35;;;-0.70;99.90;;;;;;5074931;28;20230;-74
2022/12/11 05:54:14;;;;;;;33.58;19.88;;;-0.70;99.90;;;;;;5079896;28;20265;-74
2022/12/11 05:56:41;;;;;;;27.38;15.90;;;-0.80;99.90;;;;;;5083878;28;20312;-74
2022/12/11 05:59:08;;;;;;;40.65;18.50;;;-0.80;99.90;;;;;;5082527;28;20240;-74
2022/12/11 06:01:39;;;;;;;35.15;18.05;;;-0.80;99.90;;;;;;5087639;28;20228;-74
2022/12/11 06:04:07;;;;;;;31.73;17.10;;;-0.80;99.90;;;;;;5089728;28;20240;-74
2022/12/11 06:06:35;;;;;;;28.10;17.83;;;-0.80;99.90;;;;;;5085564;28;20207;-74
2022/12/11 06:09:03;;;;;;;30.85;17.35;;;-0.80;99.90;;;;;;5088056;28;20552;-74
2022/12/11 06:11:32;;;;;;;26.27;17.50;;;-0.80;99.90;;;;;;5068767;28;20650;-74
2022/12/11 06:14:00;;;;;;;24.42;14.13;;;-0.90;99.90;;;;;;5069048;28;20845;-74
2022/12/11 06:16:27;;;;;;;28.83;18.98;;;-0.90;99.90;;;;;;5072068;28;20243;-74
2022/12/11 06:18:55;;;;;;;32.70;19.65;;;-0.90;99.90;;;;;;5068639;28;20231;-74
2022/12/11 06:21:24;;;;;;;20.90;12.88;;;-1.00;99.90;;;;;;5066715;28;20235;-74
2022/12/11 06:23:53;;;;;;;23.05;14.05;;;-1.00;99.90;;;;;;5068577;28;20300;-74
2022/12/11 06:26:21;;;;;;;20.52;12.10;;;-1.00;99.90;;;;;;5066770;28;20551;-74
2022/12/11 06:28:48;;;;;;;22.77;15.07;;;-1.10;99.90;;;;;;5078923;28;20319;-74
2022/12/11 06:31:16;;;;;;;26.38;14.93;;;-1.10;99.90;;;;;;5086922;28;20237;-74
2022/12/11 06:33:43;;;;;;;28.48;17.00;;;-1.10;99.90;;;;;;5079885;28;20235;-74
2022/12/11 06:36:13;;;;;;;24.83;13.65;;;-1.10;99.90;;;;;;5070980;28;20258;-74
2022/12/11 06:38:41;;;;;;;23.15;13.32;;;-1.10;99.90;;;;;;5073974;28;20225;-74
2022/12/11 06:41:08;;;;;;;21.13;13.63;;;-1.10;99.90;;;;;;5081522;28;20275;-74
2022/12/11 06:43:37;;;;;;;29.50;14.25;;;-1.10;99.90;;;;;;5088508;28;20260;-74
2022/12/11 06:46:05;;;;;;;23.60;14.23;;;-1.10;99.90;;;;;;5086215;28;20244;-74
2022/12/11 06:48:32;;;;;;;18.65;12.23;;;-1.00;99.90;;;;;;5074526;28;20329;-74
2022/12/11 06:50:59;;;;;;;22.83;13.20;;;-1.00;99.90;;;;;;5069699;28;20895;-75
2022/12/11 06:53:27;;;;;;;23.83;13.35;;;-1.00;99.90;;;;;;5073812;28;20312;-74
2022/12/11 06:55:54;;;;;;;17.73;13.05;;;-1.10;99.90;;;;;;5073535;28;20241;-75
2022/12/11 06:58:21;;;;;;;25.20;12.60;;;-1.00;99.90;;;;;;5070425;28;20257;-74
2022/12/11 07:00:48;;;;;;;22.90;12.20;;;-1.00;99.90;;;;;;5068617;28;20256;-79
2022/12/11 07:03:15;;;;;;;19.92;11.68;;;-1.00;99.90;;;;;;5065906;28;20228;-74
2022/12/11 07:05:41;;;;;;;22.60;12.43;;;-1.00;99.90;;;;;;5074747;28;20642;-75
2022/12/11 07:08:09;;;;;;;23.38;12.40;;;-1.00;99.90;;;;;;5072849;28;20375;-75
2022/12/11 07:10:37;;;;;;;20.42;13.68;;;-1.00;99.90;;;;;;5069872;28;20228;-74
2022/12/11 07:13:04;;;;;;;23.70;13.45;;;-1.00;99.90;;;;;;5075774;28;20289;-74
2022/12/11 07:15:31;;;;;;;20.90;12.32;;;-1.00;99.90;;;;;;5067604;28;20255;-73
2022/12/11 07:17:58;;;;;;;22.63;11.00;;;-1.00;99.90;;;;;;5068127;28;20238;-75
2022/12/11 07:20:25;;;;;;;19.45;11.50;;;-1.00;99.90;;;;;;5070320;28;20247;-75
2022/12/11 07:22:53;;;;;;;21.13;13.18;;;-1.00;99.90;;;;;;5070547;28;20254;-75
2022/12/11 07:25:20;;;;;;;28.73;12.88;;;-1.00;99.90;;;;;;5069837;28;20252;-75
2022/12/11 07:27:48;;;;;;;18.02;12.60;;;-1.00;99.90;;;;;;5073062;28;20237;-75
2022/12/11 07:30:15;;;;;;;24.08;11.27;;;-1.00;99.90;;;;;;5069946;28;20268;-75
2022/12/11 07:32:42;;;;;;;18.70;11.82;;;-1.00;99.90;;;;;;5077457;28;20239;-75
2022/12/11 07:35:10;;;;;;;23.40;11.00;;;-1.00;99.90;;;;;;5077903;28;20234;-74
2022/12/11 07:37:39;;;;;;;20.25;12.55;;;-0.90;99.90;;;;;;5067097;28;20256;-75
2022/12/11 07:40:07;;;;;;;15.43;10.80;;;-0.90;99.90;;;;;;5068312;28;20233;-75
2022/12/11 07:42:34;;;;;;;17.23;10.95;;;-0.80;99.90;;;;;;5069672;28;20222;-75
2022/12/11 07:45:03;;;;;;;17.73;10.77;;;-0.90;99.90;;;;;;5071981;28;20242;-75
2022/12/11 07:47:30;;;;;;;18.75;12.25;;;-0.80;99.90;;;;;;5070437;28;20730;-75
2022/12/11 07:49:57;;;;;;;13.00;10.88;;;-0.80;99.90;;;;;;5075717;28;20622;-75
2022/12/11 07:52:24;;;;;;;18.55;11.70;;;-0.70;99.90;;;;;;5072276;28;20240;-75
2022/12/11 07:54:51;;;;;;;18.00;11.43;;;-0.70;99.90;;;;;;5071184;28;20547;-75
2022/12/11 07:57:18;;;;;;;21.40;11.38;;;-0.60;99.90;;;;;;5073667;28;20229;-75
2022/12/11 07:59:46;;;;;;;20.17;11.90;;;-0.70;99.90;;;;;;5073493;28;20237;-75
2022/12/11 08:02:14;;;;;;;16.90;11.27;;;-0.60;99.90;;;;;;5071886;28;20305;-76
2022/12/11 08:04:41;;;;;;;18.63;9.85;;;-0.70;99.90;;;;;;5065649;28;20296;-75
2022/12/11 08:07:08;;;;;;;19.05;11.98;;;-0.60;99.90;;;;;;5067118;28;20247;-75
2022/12/11 08:09:35;;;;;;;16.38;10.02;;;-0.50;99.90;;;;;;5068391;28;20251;-75
2022/12/11 08:12:02;;;;;;;18.00;10.85;;;-0.50;99.90;;;;;;5069789;28;20230;-75
2022/12/11 08:14:29;;;;;;;21.23;11.02;;;-0.40;99.90;;;;;;5074059;28;20651;-75
2022/12/11 08:16:56;;;;;;;17.20;11.05;;;-0.50;99.90;;;;;;5074544;28;20269;-75
2022/12/11 08:19:25;;;;;;;16.73;10.80;;;-0.40;99.90;;;;;;5080157;28;20389;-74
2022/12/11 08:21:52;;;;;;;16.98;10.38;;;-0.30;99.90;;;;;;5071696;28;20469;-75
2022/12/11 08:24:19;;;;;;;14.60;9.88;;;-0.20;99.90;;;;;;5072090;28;20619;-75
2022/12/11 08:26:46;;;;;;;16.95;9.48;;;-0.20;99.90;;;;;;5070037;28;20219;-75
2022/12/11 08:29:13;;;;;;;12.57;9.52;;;-0.30;99.90;;;;;;5078526;28;20702;-76
2022/12/11 08:31:41;;;;;;;15.27;9.57;;;-0.30;99.90;;;;;;5082399;28;20234;-75
2022/12/11 08:34:12;;;;;;;14.13;8.98;;;-0.40;99.90;;;;;;5071350;28;20477;-75
2022/12/11 08:36:41;;;;;;;23.17;16.35;;;-0.60;99.90;;;;;;5066170;28;20196;-75
2022/12/11 08:39:08;;;;;;;17.83;10.18;;;-0.70;99.90;;;;;;5071441;28;20239;-75
2022/12/11 08:41:35;;;;;;;11.85;8.68;;;-0.80;99.90;;;;;;5066324;28;20258;-75
2022/12/11 08:44:02;;;;;;;13.80;9.35;;;-0.90;99.90;;;;;;5070437;28;20260;-75
2022/12/11 08:46:31;;;;;;;15.25;7.70;;;-0.90;99.90;;;;;;5077578;28;20211;-75
2022/12/11 08:48:58;;;;;;;13.45;9.50;;;-1.10;99.90;;;;;;5078761;28;20219;-75
2022/12/11 08:51:28;;;;;;;17.95;9.75;;;-1.20;99.90;;;;;;5075165;28;20206;-75
2022/12/11 08:53:57;;;;;;;16.95;9.90;;;-1.40;99.90;;;;;;5085926;28;20203;-75
2022/12/11 08:56:25;;;;;;;19.02;10.45;;;-1.50;99.90;;;;;;5084231;28;20246;-76
2022/12/11 08:58:52;;;;;;;12.50;8.02;;;-1.60;99.90;;;;;;5073581;28;20310;-76
2022/12/11 09:01:23;;;;;;;13.93;8.10;;;-1.60;99.90;;;;;;5069374;28;20635;-75
2022/12/11 09:03:51;;;;;;;23.50;9.45;;;-1.60;99.90;;;;;;5064114;28;20284;-76
2022/12/11 09:06:19;;;;;;;22.35;11.00;;;-1.50;99.90;;;;;;5061542;28;20242;-76
2022/12/11 09:08:48;;;;;;;14.15;8.73;;;-1.40;99.90;;;;;;5070138;28;20238;-76
2022/12/11 09:11:18;;;;;;;17.67;9.55;;;-1.30;99.90;;;;;;5073509;28;20247;-76
2022/12/11 09:13:45;;;;;;;8.82;5.80;;;-1.20;99.90;;;;;;5068887;28;20299;-76
2022/12/11 09:16:15;;;;;;;17.52;10.57;;;-1.10;99.90;;;;;;5063784;28;20265;-76
2022/12/11 09:18:44;;;;;;;19.08;10.13;;;-1.10;99.90;;;;;;5066340;28;20281;-76
2022/12/11 09:21:15;;;;;;;16.77;9.35;;;-1.00;99.90;;;;;;5064343;28;20299;-76
2022/12/11 09:23:42;;;;;;;16.13;9.07;;;-1.00;99.90;;;;;;5068846;28;20956;-76
2022/12/11 09:26:11;;;;;;;12.50;7.88;;;-1.00;99.90;;;;;;5067614;28;20498;-76
2022/12/11 09:28:40;;;;;;;15.20;8.67;;;-1.10;99.90;;;;;;5066174;28;20252;-76
2022/12/11 09:31:09;;;;;;;11.68;7.88;;;-1.00;99.90;;;;;;5071742;28;20500;-76
2022/12/11 09:33:36;;;;;;;19.30;10.80;;;-1.00;99.90;;;;;;5068915;28;20206;-76
2022/12/11 09:36:04;;;;;;;14.80;8.02;;;-1.00;99.90;;;;;;5068571;28;20239;-76
2022/12/11 09:38:32;;;;;;;14.02;8.02;;;-1.00;99.90;;;;;;5065330;28;20243;-76
2022/12/11 09:40:59;;;;;;;12.20;7.95;;;-1.00;99.90;;;;;;5068310;28;20238;-76
2022/12/11 09:43:38;;;;;;;12.57;8.40;;;-1.10;99.90;;;;;;5065745;28;20950;-77
2022/12/11 09:46:13;;;;;;;14.70;9.00;;;-1.10;99.90;;;;;;5067455;28;20203;-75
2022/12/11 09:48:43;;;;;;;18.60;9.48;;;-0.90;99.90;;;;;;5075457;28;20253;-76
2022/12/11 09:51:18;;;;;;;13.07;9.10;;;-0.90;99.90;;;;;;5066304;28;20456;-76
2022/12/11 09:53:45;;;;;;;16.75;10.38;;;-0.70;99.90;;;;;;5067936;28;20256;-76
2022/12/11 09:56:21;;;;;;;13.77;9.25;;;-0.70;99.90;;;;;;5071874;28;20820;-76
2022/12/11 09:59:02;;;;;;;13.98;8.15;;;-0.50;99.90;;;;;;5072224;28;20754;-76
2022/12/11 10:01:39;;;;;;;11.50;7.78;;;-0.60;99.90;;;;;;5068450;28;20708;-76
2022/12/11 10:04:34;;;;;;;18.77;11.10;;;-0.40;99.90;;;;;;5067133;28;20685;-76
2022/12/11 10:07:09;;;;;;;9.27;8.05;;;-0.40;99.90;;;;;;5064564;28;20289;-76
2022/12/11 10:09:43;;;;;;;10.90;6.30;;;-0.30;99.90;;;;;;5065867;28;20305;-76
2022/12/11 10:12:30;;;;;;;13.23;8.57;;;-0.40;99.90;;;;;;5070916;28;20890;-76
2022/12/11 10:15:14;;;;;;;9.13;6.80;;;-0.50;99.90;;;;;;5066393;28;20224;-76
2022/12/11 10:17:44;;;;;;;10.40;8.03;;;-0.50;99.90;;;;;;5069811;28;20584;-76
2022/12/11 10:20:22;;;;;;;15.90;9.98;;;-0.50;99.90;;;;;;5067128;28;20554;-76
2022/12/11 10:22:51;;;;;;;14.88;8.40;;;-0.50;99.90;;;;;;5071619;28;20263;-75
2022/12/11 10:25:21;;;;;;;13.20;7.07;;;-0.50;99.90;;;;;;5065607;28;20301;-76
2022/12/11 10:27:49;;;;;;;16.27;10.98;;;-0.40;99.90;;;;;;5066715;28;20487;-76
2022/12/11 10:30:19;;;;;;;18.30;10.47;;;-0.20;99.90;;;;;;5066131;28;20334;-76
2022/12/11 10:32:53;;;;;;;14.33;9.37;;;-0.20;99.90;;;;;;5069420;28;20513;-76
2022/12/11 10:35:29;;;;;;;12.47;7.87;;;-0.30;99.90;;;;;;5079843;28;20496;-76
2022/12/11 10:38:01;;;;;;;12.90;9.18;;;-0.30;99.90;;;;;;5080893;28;20494;-76
2022/12/11 10:40:31;;;;;;;15.70;7.50;;;-0.20;99.90;;;;;;5063911;28;20602;-76
2022/12/11 10:42:58;;;;;;;13.83;9.07;;;-0.20;99.90;;;;;;5068024;28;20323;-76
2022/12/11 10:45:25;;;;;;;14.10;9.00;;;-0.30;99.90;;;;;;5062061;28;20489;-77
2022/12/11 10:48:04;;;;;;;10.52;8.27;;;-0.30;99.90;;;;;;5066940;28;20542;-77
2022/12/11 10:50:31;;;;;;;10.27;8.52;;;-0.30;99.90;;;;;;5062274;28;20737;-76
2022/12/11 10:52:58;;;;;;;12.98;8.60;;;-0.40;99.90;;;;;;5070714;28;20237;-76
2022/12/11 10:55:28;;;;;;;15.03;10.17;;;-0.30;99.90;;;;;;5067876;28;20278;-76
2022/12/11 10:57:57;;;;;;;12.05;8.57;;;-0.20;99.90;;;;;;5076319;28;20559;-77
2022/12/11 11:00:35;;;;;;;9.57;7.40;;;-0.30;99.90;;;;;;5063470;28;20291;-77
2022/12/11 11:03:05;;;;;;;11.85;8.02;;;-0.30;99.90;;;;;;5063926;28;20511;-76
2022/12/11 11:05:34;;;;;;;13.88;8.70;;;-0.30;99.90;;;;;;5064713;28;20290;-76
2022/12/11 11:08:15;;;;;;;11.13;7.27;;;-0.30;99.90;;;;;;5065913;28;20212;-76
2022/12/11 11:10:56;;;;;;;12.73;8.57;;;-0.20;99.90;;;;;;5072605;28;20650;-75
2022/12/11 11:13:24;;;;;;;12.17;7.57;;;-0.20;99.90;;;;;;5063601;28;20236;-75
2022/12/11 11:16:00;;;;;;;13.77;8.97;;;-0.10;99.90;;;;;;5068433;28;20849;-75
2022/12/11 11:18:29;;;;;;;11.15;7.70;;;-0.30;99.90;;;;;;5078463;28;20521;-75
2022/12/11 11:20:57;;;;;;;19.43;10.67;;;-0.30;99.90;;;;;;5065879;28;20225;-75
2022/12/11 11:23:25;;;;;;;11.27;7.13;;;-0.30;99.90;;;;;;5072993;28;20515;-75
2022/12/11 11:25:54;;;;;;;13.80;8.30;;;-0.20;99.90;;;;;;5067449;28;20495;-75
2022/12/11 11:28:25;;;;;;;14.50;9.87;;;-0.20;99.90;;;;;;5070573;28;20948;-75
2022/12/11 11:31:00;;;;;;;15.47;9.07;;;-0.30;99.90;;;;;;5065235;28;20562;-75
2022/12/11 11:33:29;;;;;;;11.73;8.27;;;-0.10;99.90;;;;;;5076433;28;20447;-75
2022/12/11 11:35:59;;;;;;;16.33;9.47;;;-0.20;99.90;;;;;;5072433;28;20490;-75
2022/12/11 11:38:29;;;;;;;11.48;8.32;;;-0.20;99.90;;;;;;5069772;28;20495;-75
2022/12/11 11:41:04;;;;;;;12.07;8.83;;;-0.10;99.90;;;;;;5068963;28;20245;-75
2022/12/11 11:43:38;;;;;;;14.20;8.87;;;-0.20;99.90;;;;;;5070674;28;20482;-75
2022/12/11 11:46:10;;;;;;;11.87;8.30;;;-0.20;99.90;;;;;;5065098;28;20490;-75
2022/12/11 11:48:49;;;;;;;13.40;8.77;;;0.00;99.90;;;;;;5066987;28;20984;-75
2022/12/11 11:51:22;;;;;;;15.83;8.70;;;-0.10;99.90;;;;;;5067119;28;21186;-75
2022/12/11 11:53:52;;;;;;;12.10;8.40;;;0.00;99.90;;;;;;5065834;28;20542;-75
2022/12/11 11:56:23;;;;;;;13.83;9.50;;;0.00;99.90;;;;;;5066558;28;20471;-75
2022/12/11 11:59:01;;;;;;;8.17;6.83;;;0.00;99.90;;;;;;5067128;28;20489;-75
2022/12/11 12:01:28;;;;;;;10.67;7.47;;;-0.10;99.90;;;;;;5066544;28;20461;-75
2022/12/11 12:03:57;;;;;;;14.57;7.68;;;0.00;99.90;;;;;;5068585;28;20512;-75
2022/12/11 12:06:39;;;;;;;11.53;8.10;;;0.00;99.90;;;;;;5063815;28;20244;-75
2022/12/11 12:09:18;;;;;;;13.13;8.70;;;0.10;99.90;;;;;;5066600;28;21007;-76
2022/12/11 12:11:53;;;;;;;12.97;7.73;;;0.30;99.90;;;;;;5064925;28;20474;-76
2022/12/11 12:14:25;;;;;;;10.27;6.80;;;0.20;99.90;;;;;;5063923;28;20629;-77
2022/12/11 12:17:04;;;;;;;13.17;8.50;;;-0.10;99.90;;;;;;5065925;28;21171;-77
2022/12/11 12:19:43;;;;;;;14.23;8.57;;;0.00;99.90;;;;;;5063052;28;21032;-77
2022/12/11 12:22:27;;;;;;;15.13;8.23;;;-0.20;99.90;;;;;;5065712;28;20493;-78
2022/12/11 12:25:06;;;;;;;11.50;7.90;;;-0.10;99.90;;;;;;5065743;28;20479;-75
2022/12/11 12:27:41;;;;;;;13.93;7.77;;;-0.10;99.90;;;;;;5068870;28;20471;-75
2022/12/11 12:30:11;;;;;;;12.45;9.25;;;-0.30;99.90;;;;;;5065750;28;20526;-75
2022/12/11 12:32:48;;;;;;;12.77;8.32;;;-0.40;99.90;;;;;;5062747;28;20296;-75
2022/12/11 12:35:27;;;;;;;9.50;6.37;;;-0.50;99.90;;;;;;5064230;28;20254;-75
2022/12/11 12:37:58;;;;;;;12.57;8.15;;;-0.50;99.90;;;;;;5065378;28;20496;-75
2022/12/11 12:40:31;;;;;;;13.15;7.20;;;-0.50;99.90;;;;;;5062310;28;21012;-75
2022/12/11 12:43:11;;;;;;;15.00;8.93;;;-0.40;99.90;;;;;;5068104;28;20200;-75
2022/12/11 12:45:46;;;;;;;11.00;7.50;;;-0.50;99.90;;;;;;5065727;28;20253;-75
2022/12/11 12:48:13;;;;;;;11.32;7.53;;;-0.50;99.90;;;;;;5061329;28;20298;-77
2022/12/11 12:50:44;;;;;;;12.95;9.32;;;-0.50;99.90;;;;;;5063348;28;20296;-75
2022/12/11 12:53:17;;;;;;;18.98;9.88;;;-0.60;99.90;;;;;;5063435;28;20698;-75
2022/12/11 12:55:46;;;;;;;13.73;9.07;;;-0.70;99.90;;;;;;5065203;28;20260;-75
2022/12/11 12:58:26;;;;;;;11.45;9.50;;;-0.70;99.90;;;;;;5069532;28;20272;-75